St George Municipal Airport
KSGU : now visible

Airfield :











YOU CAN JOIN US ON...

 
LOGIN :

Register | Disclaimer

   EN    FR    IT 

 









Legend :    VFR   Marginal VFR   IFR   Intensive IFR   Very Intensive IFR
Visi :
Ceiling :
>= 8 km
>= 3000ft
5 to 8 km
1000 to 3000 ft
1500m to 5 km
500 to 1000 ft
800 to 1500m
200 to 500 ft
< 800m
< 200 ft
Symbols :   Thunderstorms  Fog  Heavy snow  Heavy precipitations  Wind > 20 kt







- Airport Elevation : 2941 ft


KSGU - St George Municipal

CURRENT METAR :
  • 200056Z AUTO 25014KT 10SM CLR 37/01 A2980 RMK AO2 WSHFT 0013 SLP051 T03670011

EXPIRED METARs :
  • 200033Z AUTO 25012KT 10SM CLR 37/02 A2981 RMK AO2 WSHFT 0013
  • 192356Z AUTO 27011G17KT 10SM CLR 37/02 A2982 RMK AO2 SLP058 T03670017 10372 20306 56020
  • 192256Z AUTO 26009G19KT 200V280 10SM CLR 37/02 A2984 RMK AO2 SLP065 T03670017

TAF KSGU
Valid from the 20 at 00:00 until the 21 at 00:00 UTC


192325Z 2000/2024 25010G18KT P6SM SKC
FM200300 20008KT P6SM SKC
FM200900 15008KT P6SM SKC
FM202000 22025G35KT P6SM SCT200
KZLA FIR / North America



MET'MAP, your aeronautical weather chart ! - Copyright ORBIFLY December 2007 - Disclaimer

ORBIFLY MET'MAP TEAM :

Programming & Development : Alexandra Zaïnal
Concept & Development : Baudouin d'Aumeries
Co-Development & Prog : Marc-Olivier Méhu
Technical & hardware support : Manuel Goepfert

Contact : metmap@orbifly.com




SOURCES & CREDITS :

   NOAA       Earth
Advisory